Time;durP1;ratioP1;P1;durP2;ratioP2;P2;SDS_P1;SDS_P2;PMS_P1;PMS_P2;Temp;Humidity;BMP_temperature;BMP_pressure;BME280_temperature;BME280_humidity;BME280_pressure;Samples;Min_cycle;Max_cycle;Signal;HPM_P1;HPM_P2
2022/06/26 00:00:34;;;;;;;3.37;3.17;;;21.10;93.90;;;;;;10469004;28;20227;-79
2022/06/26 00:05:36;;;;;;;3.40;3.10;;;21.10;94.40;;;;;;10471321;28;20225;-80
2022/06/26 00:10:38;;;;;;;3.10;2.90;;;21.10;93.70;;;;;;10463286;28;20235;-78
2022/06/26 00:15:42;;;;;;;3.50;3.30;;;21.00;93.60;;;;;;10461856;28;20244;-80
2022/06/26 00:20:44;;;;;;;3.60;3.30;;;21.00;93.70;;;;;;10461987;28;20249;-78
2022/06/26 00:25:46;;;;;;;3.90;3.23;;;21.00;93.80;;;;;;10486342;28;20216;-78
2022/06/26 00:30:51;;;;;;;5.07;3.53;;;21.00;94.40;;;;;;10469201;28;20193;-78
2022/06/26 00:35:53;;;;;;;3.60;3.40;;;21.00;94.30;;;;;;10507914;22;20243;-80
2022/06/26 00:40:55;;;;;;;5.33;3.70;;;21.00;95.40;;;;;;10494067;28;20711;-81
2022/06/26 00:45:58;;;;;;;5.27;3.70;;;21.00;94.40;;;;;;10466754;28;20278;-81
2022/06/26 00:51:01;;;;;;;2.67;2.57;;;21.10;94.20;;;;;;10479803;28;20204;-81
2022/06/26 00:56:05;;;;;;;3.17;3.07;;;21.20;94.00;;;;;;10469804;28;20379;-82
2022/06/26 01:01:08;;;;;;;2.87;2.70;;;21.20;94.00;;;;;;10497756;28;20285;-83
2022/06/26 01:06:10;;;;;;;3.67;3.47;;;21.40;93.20;;;;;;10474687;28;20225;-81
2022/06/26 01:11:18;;;;;;;3.53;3.27;;;21.40;93.30;;;;;;10498658;28;20279;-81
2022/06/26 01:16:22;;;;;;;4.23;2.97;;;21.50;93.60;;;;;;10470096;28;20541;-80
2022/06/26 01:21:28;;;;;;;3.70;3.40;;;21.60;93.30;;;;;;10459728;28;20227;-80
2022/06/26 01:26:31;;;;;;;3.33;2.60;;;21.70;92.60;;;;;;10467692;28;20672;-81
2022/06/26 01:31:34;;;;;;;2.90;2.80;;;21.70;92.90;;;;;;10479760;28;20225;-81
2022/06/26 01:36:37;;;;;;;3.00;2.90;;;21.80;94.10;;;;;;10477103;28;20275;-80
2022/06/26 01:41:41;;;;;;;3.17;2.97;;;21.90;93.30;;;;;;10477781;28;20274;-81
2022/06/26 01:46:44;;;;;;;3.40;3.20;;;21.90;92.80;;;;;;10454836;28;20209;-81
2022/06/26 01:51:46;;;;;;;3.37;3.20;;;21.90;93.20;;;;;;10477010;28;20224;-81
2022/06/26 01:56:50;;;;;;;3.00;2.90;;;22.00;94.20;;;;;;10475272;28;20235;-81
2022/06/26 02:01:53;;;;;;;3.40;3.30;;;22.00;93.20;;;;;;10472295;28;20288;-81
2022/06/26 02:06:56;;;;;;;3.20;3.00;;;22.00;93.90;;;;;;10473980;28;20671;-80
2022/06/26 02:17:20;;;;;;;3.20;3.07;;;22.10;94.40;;;;;;10472431;28;20202;-81
2022/06/26 02:22:22;;;;;;;3.50;3.30;;;22.10;94.10;;;;;;10482089;28;20235;-81
2022/06/26 02:27:25;;;;;;;2.93;2.83;;;22.10;94.90;;;;;;10481596;28;20204;-80
2022/06/26 02:32:27;;;;;;;3.20;3.03;;;22.10;94.20;;;;;;10503148;28;20225;-80
2022/06/26 02:37:30;;;;;;;3.43;3.20;;;22.00;93.80;;;;;;10505150;28;20204;-80
2022/06/26 02:42:33;;;;;;;2.97;2.87;;;21.90;94.00;;;;;;10487071;28;20224;-81
2022/06/26 02:47:35;;;;;;;3.10;3.00;;;21.80;94.00;;;;;;10490447;28;20197;-81
2022/06/26 02:52:38;;;;;;;3.60;3.40;;;21.80;94.10;;;;;;10495837;28;20528;-81
2022/06/26 02:57:42;;;;;;;3.17;2.97;;;21.70;94.60;;;;;;10469405;28;20208;-80
2022/06/26 03:02:44;;;;;;;3.27;3.07;;;21.60;94.70;;;;;;10479375;28;20232;-81
2022/06/26 03:07:46;;;;;;;2.50;2.30;;;21.60;94.60;;;;;;10496500;28;20231;-80
2022/06/26 03:12:51;;;;;;;2.70;2.60;;;21.50;94.80;;;;;;10483523;28;20231;-80
2022/06/26 03:17:55;;;;;;;2.63;2.50;;;21.50;95.10;;;;;;10490537;28;20266;-81
2022/06/26 03:22:58;;;;;;;2.70;2.60;;;21.40;95.10;;;;;;10478683;28;20229;-80
2022/06/26 03:28:01;;;;;;;3.10;2.70;;;21.40;95.40;;;;;;10486413;28;20199;-81
2022/06/26 03:33:04;;;;;;;3.27;3.07;;;21.40;94.90;;;;;;10485733;28;20231;-81
2022/06/26 03:38:08;;;;;;;2.83;2.73;;;21.30;95.60;;;;;;10488757;28;20200;-81
2022/06/26 03:43:12;;;;;;;2.87;2.70;;;21.30;95.50;;;;;;10485181;28;20224;-81
2022/06/26 03:48:24;;;;;;;3.07;2.93;;;21.30;95.10;;;;;;10474892;28;20193;-81
2022/06/26 03:53:30;;;;;;;2.63;2.50;;;21.30;95.40;;;;;;10478836;28;20740;-80
2022/06/26 03:58:33;;;;;;;3.00;2.90;;;21.20;95.50;;;;;;10459564;28;20213;-81
2022/06/26 04:03:35;;;;;;;6.40;2.70;;;21.20;95.30;;;;;;10457430;28;20223;-82
2022/06/26 04:08:38;;;;;;;2.77;2.67;;;21.20;95.40;;;;;;10469029;28;20204;-80
2022/06/26 04:13:45;;;;;;;3.00;2.80;;;21.30;95.40;;;;;;10456129;28;20225;-81
2022/06/26 04:18:50;;;;;;;2.87;2.67;;;21.30;95.90;;;;;;10473290;28;20583;-80
2022/06/26 04:23:52;;;;;;;2.70;2.60;;;21.30;95.60;;;;;;10475888;28;20312;-81
2022/06/26 04:28:57;;;;;;;2.70;2.60;;;21.40;95.30;;;;;;10479191;28;20193;-80
2022/06/26 04:34:00;;;;;;;3.13;2.93;;;21.40;95.00;;;;;;10452172;28;20224;-81
2022/06/26 04:39:03;;;;;;;3.07;2.87;;;21.40;95.50;;;;;;10492284;28;20242;-80
2022/06/26 04:44:08;;;;;;;2.23;2.13;;;21.30;95.00;;;;;;10474837;28;20704;-80
2022/06/26 04:49:10;;;;;;;2.57;2.33;;;21.30;95.40;;;;;;10476459;28;20195;-80
2022/06/26 04:54:13;;;;;;;2.43;2.23;;;21.40;95.40;;;;;;10477273;28;20598;-80
2022/06/26 04:59:16;;;;;;;2.00;1.90;;;21.50;94.80;;;;;;10471194;28;20262;-80
2022/06/26 05:04:18;;;;;;;2.20;2.10;;;21.50;95.10;;;;;;10486674;28;20220;-81
2022/06/26 05:09:27;;;;;;;2.50;2.30;;;21.60;94.80;;;;;;10475570;28;20200;-80
2022/06/26 05:14:31;;;;;;;2.40;2.00;;;21.50;94.60;;;;;;10463319;28;20228;-81
2022/06/26 05:19:46;;;;;;;2.60;2.50;;;21.60;94.70;;;;;;10480244;28;20239;-81
2022/06/26 05:24:49;;;;;;;2.63;2.53;;;21.70;95.20;;;;;;10461304;28;20228;-80
2022/06/26 05:29:52;;;;;;;2.30;2.10;;;21.70;95.00;;;;;;10461989;28;20193;-81
2022/06/26 05:34:55;;;;;;;2.53;2.43;;;21.80;95.10;;;;;;10475885;28;20231;-81
2022/06/26 05:39:57;;;;;;;3.17;3.00;;;21.90;95.70;;;;;;10469975;28;20244;-81
2022/06/26 05:45:00;;;;;;;3.03;2.93;;;22.00;95.90;;;;;;10483594;28;20220;-80
2022/06/26 05:50:03;;;;;;;3.27;3.07;;;22.10;96.00;;;;;;10460746;28;20196;-81
2022/06/26 05:55:29;;;;;;;2.90;2.80;;;22.20;96.50;;;;;;10472917;28;20249;-81
2022/06/26 06:00:43;;;;;;;2.70;2.60;;;22.40;96.20;;;;;;10454176;28;20302;-81
2022/06/26 06:05:45;;;;;;;2.63;2.53;;;22.40;96.60;;;;;;10502133;28;20255;-81
2022/06/26 06:10:48;;;;;;;3.37;3.17;;;22.30;96.30;;;;;;10466926;28;20197;-81
2022/06/26 06:15:52;;;;;;;4.40;3.00;;;22.20;96.30;;;;;;10478195;28;20241;-81
2022/06/26 06:20:55;;;;;;;2.77;2.57;;;22.10;96.30;;;;;;10457118;28;20645;-81
2022/06/26 06:25:57;;;;;;;2.50;2.40;;;22.00;96.60;;;;;;10487885;28;20729;-82
2022/06/26 06:31:03;;;;;;;2.97;2.87;;;22.00;96.20;;;;;;10478031;28;20208;-81
2022/06/26 06:36:08;;;;;;;2.57;2.47;;;22.00;96.20;;;;;;10474828;28;20246;-81
2022/06/26 06:41:12;;;;;;;2.87;2.77;;;22.00;96.80;;;;;;10484165;28;20311;-81
2022/06/26 06:46:34;;;;;;;2.60;2.50;;;22.10;95.40;;;;;;10482527;28;20212;-81
2022/06/26 06:51:43;;;;;;;3.10;2.90;;;22.50;94.90;;;;;;10483073;28;20277;-81
2022/06/26 06:56:45;;;;;;;2.87;2.77;;;22.80;94.30;;;;;;10480808;28;20204;-82
2022/06/26 07:01:49;;;;;;;2.93;2.77;;;23.10;93.30;;;;;;10509546;28;20708;-82
2022/06/26 07:06:51;;;;;;;2.73;2.60;;;23.30;93.60;;;;;;10484012;28;20227;-81
2022/06/26 07:11:56;;;;;;;2.80;2.60;;;23.50;92.90;;;;;;10480935;28;20223;-82
2022/06/26 07:16:59;;;;;;;3.10;3.00;;;23.70;92.50;;;;;;10473705;28;20290;-82
2022/06/26 07:22:02;;;;;;;3.03;2.83;;;24.00;92.60;;;;;;10480262;28;20229;-83
2022/06/26 07:27:05;;;;;;;2.43;2.33;;;24.20;92.00;;;;;;10485150;28;20197;-80
2022/06/26 07:32:14;;;;;;;2.50;2.40;;;24.50;91.10;;;;;;10464393;28;20223;-81
2022/06/26 07:37:17;;;;;;;2.40;2.30;;;24.70;90.20;;;;;;10482517;28;20200;-81
2022/06/26 07:42:20;;;;;;;5.07;3.13;;;24.90;90.50;;;;;;10470034;28;20231;-80
2022/06/26 07:47:24;;;;;;;3.87;2.60;;;25.20;90.30;;;;;;10477413;28;20232;-81
2022/06/26 07:52:35;;;;;;;2.40;2.30;;;25.60;87.60;;;;;;10465404;28;20634;-81
2022/06/26 07:57:37;;;;;;;2.50;2.40;;;26.20;88.40;;;;;;10487785;28;20223;-80
2022/06/26 08:02:41;;;;;;;2.53;2.33;;;26.80;85.80;;;;;;10476150;28;20323;-81
2022/06/26 08:07:43;;;;;;;2.07;1.97;;;27.50;82.50;;;;;;10503674;28;20196;-80
2022/06/26 08:12:45;;;;;;;2.43;2.33;;;28.00;80.80;;;;;;10480881;28;20275;-80
2022/06/26 08:17:48;;;;;;;2.20;2.10;;;28.50;78.00;;;;;;10490809;28;20227;-80
2022/06/26 08:22:51;;;;;;;2.17;2.07;;;29.00;75.20;;;;;;10466542;28;20225;-82
2022/06/26 08:27:53;;;;;;;2.30;2.10;;;29.40;76.60;;;;;;10444637;28;20197;-82
2022/06/26 08:32:58;;;;;;;2.23;2.03;;;29.80;73.80;;;;;;10462694;28;20231;-82
2022/06/26 08:38:01;;;;;;;1.80;1.80;;;30.00;72.70;;;;;;10481239;28;20200;-82
2022/06/26 08:43:05;;;;;;;2.00;1.90;;;30.30;72.60;;;;;;10465360;28;20273;-82
2022/06/26 08:48:13;;;;;;;1.63;1.53;;;30.60;71.80;;;;;;10468489;28;20203;-82
2022/06/26 08:53:16;;;;;;;2.07;1.97;;;30.90;69.10;;;;;;10455896;28;20276;-83
2022/06/26 08:58:18;;;;;;;2.17;2.07;;;31.10;68.30;;;;;;10472947;28;20229;-82
2022/06/26 09:03:21;;;;;;;2.30;2.20;;;31.30;68.20;;;;;;10455965;28;20236;-80
2022/06/26 09:08:25;;;;;;;2.80;2.17;;;31.60;68.10;;;;;;10460400;28;20200;-83
2022/06/26 09:13:38;;;;;;;2.23;2.13;;;31.80;67.20;;;;;;10475012;28;20210;-83
2022/06/26 09:18:43;;;;;;;2.27;2.17;;;32.00;65.70;;;;;;10503353;28;20197;-83
2022/06/26 09:23:55;;;;;;;2.13;2.03;;;32.30;65.30;;;;;;10465733;28;20254;-81
2022/06/26 09:28:57;;;;;;;2.20;2.10;;;32.60;65.70;;;;;;10493684;28;20254;-82
2022/06/26 09:34:00;;;;;;;2.00;1.90;;;32.90;62.90;;;;;;10460960;28;20220;-81
2022/06/26 09:39:07;;;;;;;2.30;2.20;;;33.30;62.10;;;;;;10476996;28;20732;-82
2022/06/26 09:44:18;;;;;;;2.37;2.27;;;33.90;61.30;;;;;;10473390;28;20215;-84
2022/06/26 09:49:22;;;;;;;2.42;2.30;;;34.80;59.30;;;;;;10477567;28;20242;-84
2022/06/26 09:54:24;;;;;;;2.00;1.90;;;35.90;57.70;;;;;;10501709;28;20239;-84
2022/06/26 09:59:27;;;;;;;2.78;2.30;;;37.20;55.30;;;;;;10488865;28;20258;-84
2022/06/26 10:09:51;;;;;;;2.60;2.40;;;39.10;52.00;;;;;;10472368;28;20257;-84
2022/06/26 10:14:55;;;;;;;2.20;2.10;;;39.30;50.90;;;;;;10481933;28;20212;-84
2022/06/26 10:20:01;;;;;;;2.53;2.40;;;38.40;51.10;;;;;;10482203;28;20185;-82
2022/06/26 10:25:07;;;;;;;2.22;2.13;;;38.40;50.30;;;;;;10471013;28;20247;-83
2022/06/26 10:30:11;;;;;;;2.50;2.30;;;38.30;51.00;;;;;;10465330;28;20212;-83
2022/06/26 10:35:15;;;;;;;2.43;2.33;;;36.60;51.30;;;;;;10460369;28;20306;-82
2022/06/26 10:45:43;;;;;;;2.33;2.23;;;33.30;58.20;;;;;;10472313;28;20679;-80
2022/06/26 10:50:57;;;;;;;3.13;2.30;;;32.00;59.30;;;;;;10483065;28;20217;-81
2022/06/26 10:56:03;;;;;;;2.50;2.30;;;31.00;61.70;;;;;;10507626;28;20239;-79
2022/06/26 11:01:07;;;;;;;2.30;2.20;;;30.40;63.00;;;;;;10486776;28;21425;-80
2022/06/26 11:06:12;;;;;;;2.00;2.00;;;29.90;63.30;;;;;;10460334;28;20307;-79
2022/06/26 11:11:17;;;;;;;2.50;2.40;;;29.50;63.30;;;;;;10471134;28;20285;-80
2022/06/26 11:16:29;;;;;;;2.03;1.93;;;29.40;65.00;;;;;;10446163;28;20208;-79
2022/06/26 11:21:34;;;;;;;2.43;2.33;;;29.40;66.10;;;;;;10481064;28;20207;-80
2022/06/26 11:26:36;;;;;;;2.30;2.20;;;29.60;66.30;;;;;;10474967;28;20205;-81
2022/06/26 11:31:38;;;;;;;2.23;2.13;;;29.60;65.10;;;;;;10482329;28;20636;-80
2022/06/26 11:36:51;;;;;;;2.03;1.97;;;29.70;65.00;;;;;;10495985;28;20236;-80
2022/06/26 11:41:53;;;;;;;2.00;1.90;;;29.80;65.80;;;;;;10460391;28;20307;-79
2022/06/26 11:46:55;;;;;;;2.10;2.07;;;29.90;65.20;;;;;;10456730;28;20197;-80
2022/06/26 11:51:59;;;;;;;1.93;1.93;;;30.00;64.20;;;;;;10449289;28;20237;-79
2022/06/26 11:57:05;;;;;;;2.43;2.33;;;30.00;64.80;;;;;;10425614;28;20653;-79
2022/06/26 12:02:18;;;;;;;2.53;2.43;;;29.80;64.10;;;;;;10458335;28;20296;-78
2022/06/26 12:07:22;;;;;;;2.30;2.20;;;29.50;65.40;;;;;;10451822;28;20297;-78
2022/06/26 12:12:28;;;;;;;2.20;2.10;;;29.00;66.40;;;;;;10460250;28;20220;-79
2022/06/26 12:17:31;;;;;;;2.20;2.10;;;28.70;67.20;;;;;;10464306;28;20213;-79
2022/06/26 12:22:35;;;;;;;2.00;1.90;;;28.40;69.70;;;;;;10472940;28;20727;-79
2022/06/26 12:27:39;;;;;;;2.60;2.50;;;28.20;68.40;;;;;;10468098;28;20197;-79
2022/06/26 12:32:41;;;;;;;2.63;2.47;;;28.00;67.00;;;;;;10463780;28;20304;-80
2022/06/26 12:37:45;;;;;;;2.10;2.00;;;27.80;68.30;;;;;;10500517;28;20200;-79
2022/06/26 12:42:47;;;;;;;2.50;2.37;;;27.70;69.70;;;;;;10479289;28;20303;-79
2022/06/26 12:47:50;;;;;;;2.33;2.23;;;27.70;70.90;;;;;;10482653;28;20696;-79
2022/06/26 12:52:54;;;;;;;2.00;1.90;;;27.70;68.00;;;;;;10489759;28;20587;-79
2022/06/26 12:57:56;;;;;;;2.30;2.20;;;27.60;68.80;;;;;;10492968;28;20220;-80
2022/06/26 13:02:58;;;;;;;2.53;2.43;;;27.60;70.30;;;;;;10471150;28;20300;-80
2022/06/26 13:08:02;;;;;;;2.40;2.30;;;27.60;70.40;;;;;;10498380;28;20219;-79
2022/06/26 13:13:04;;;;;;;2.40;2.30;;;27.50;71.20;;;;;;10502925;28;20235;-79
2022/06/26 13:18:07;;;;;;;2.47;2.37;;;27.50;71.10;;;;;;10479961;28;20215;-80
2022/06/26 13:23:10;;;;;;;2.50;2.30;;;27.50;70.50;;;;;;10459969;28;20223;-80
2022/06/26 13:28:12;;;;;;;2.60;2.50;;;27.50;72.20;;;;;;10481251;28;20288;-80
2022/06/26 13:33:14;;;;;;;2.30;2.20;;;27.50;71.80;;;;;;10440341;28;20679;-80
2022/06/26 13:38:18;;;;;;;2.30;2.20;;;27.50;71.90;;;;;;10461488;28;20208;-79
2022/06/26 13:43:20;;;;;;;2.40;2.30;;;27.40;72.10;;;;;;10467437;28;20267;-79
2022/06/26 13:48:22;;;;;;;2.10;2.10;;;27.40;71.50;;;;;;10466444;28;20284;-80
2022/06/26 13:53:26;;;;;;;2.30;2.20;;;27.40;70.80;;;;;;10457728;28;20244;-80
2022/06/26 13:58:28;;;;;;;2.30;2.20;;;27.30;71.40;;;;;;10467575;28;20193;-80
2022/06/26 14:03:30;;;;;;;2.53;2.43;;;27.30;72.20;;;;;;10471820;28;20291;-80
2022/06/26 14:08:34;;;;;;;3.30;2.30;;;27.30;73.50;;;;;;10481505;28;20205;-80
2022/06/26 14:13:36;;;;;;;3.90;3.60;;;27.30;73.30;;;;;;10486308;28;20517;-79
2022/06/26 14:18:38;;;;;;;2.50;2.30;;;27.30;73.00;;;;;;10486745;28;20226;-79
2022/06/26 14:29:02;;;;;;;2.60;2.50;;;27.40;72.00;;;;;;10456610;28;20200;-79
2022/06/26 14:34:07;;;;;;;2.30;2.20;;;27.40;72.70;;;;;;10466067;28;20274;-79
2022/06/26 14:39:10;;;;;;;2.40;2.30;;;27.40;73.50;;;;;;10483307;28;20248;-80
2022/06/26 14:44:12;;;;;;;2.13;2.03;;;27.40;74.10;;;;;;10451180;28;20221;-78
2022/06/26 14:49:17;;;;;;;2.57;2.47;;;27.40;73.50;;;;;;10457031;28;20269;-80
2022/06/26 14:54:21;;;;;;;2.17;2.07;;;27.40;73.60;;;;;;10458566;28;20307;-79
2022/06/26 14:59:23;;;;;;;2.47;2.37;;;27.30;75.20;;;;;;10486775;28;20220;-78
2022/06/26 15:04:25;;;;;;;2.60;2.40;;;27.30;75.00;;;;;;10490537;28;20779;-78
2022/06/26 15:09:29;;;;;;;2.67;2.57;;;27.20;74.80;;;;;;10480187;28;20247;-79
2022/06/26 15:14:32;;;;;;;2.87;2.67;;;27.30;74.20;;;;;;10481225;28;20335;-80
2022/06/26 15:19:34;;;;;;;2.50;2.40;;;27.20;75.60;;;;;;10465785;28;20200;-80
2022/06/26 15:24:38;;;;;;;2.33;2.23;;;27.20;75.70;;;;;;10491864;28;20274;-79
2022/06/26 15:29:40;;;;;;;2.10;2.00;;;27.20;75.90;;;;;;10485122;28;20208;-79
2022/06/26 15:34:43;;;;;;;2.17;2.07;;;27.10;76.20;;;;;;10467799;28;20366;-79
2022/06/26 15:39:48;;;;;;;1.90;1.80;;;27.20;75.10;;;;;;10500477;28;20201;-80
2022/06/26 15:44:50;;;;;;;2.80;2.60;;;27.20;74.70;;;;;;10472788;28;20974;-79
2022/06/26 15:49:52;;;;;;;2.13;2.03;;;27.20;74.90;;;;;;10482915;28;20205;-80
2022/06/26 15:54:55;;;;;;;2.57;2.37;;;27.20;75.00;;;;;;10475271;28;20232;-79
2022/06/26 15:59:57;;;;;;;3.90;2.37;;;27.20;75.30;;;;;;10480647;28;20542;-80
2022/06/26 16:05:00;;;;;;;2.40;2.30;;;27.20;75.20;;;;;;10474778;28;20216;-80
2022/06/26 16:10:05;;;;;;;2.40;2.30;;;27.20;74.60;;;;;;10467971;28;20201;-79
2022/06/26 16:15:08;;;;;;;2.50;2.10;;;27.20;75.30;;;;;;10478446;28;20332;-80
2022/06/26 16:20:11;;;;;;;2.57;2.47;;;27.30;74.80;;;;;;10458805;28;20205;-80
2022/06/26 16:30:34;;;;;;;2.20;2.10;;;27.20;74.60;;;;;;10490339;28;20282;-80
2022/06/26 16:35:37;;;;;;;2.73;2.33;;;27.20;75.30;;;;;;10488178;28;20236;-80
2022/06/26 16:40:41;;;;;;;2.07;1.97;;;27.20;75.00;;;;;;10476114;28;20207;-78
2022/06/26 16:45:43;;;;;;;5.00;2.50;;;27.20;75.10;;;;;;10512719;28;20286;-79
2022/06/26 16:50:45;;;;;;;2.60;2.50;;;27.20;74.80;;;;;;10512095;28;20204;-77
2022/06/26 16:55:49;;;;;;;2.40;2.20;;;27.30;75.00;;;;;;10492773;28;20259;-78
2022/06/26 17:00:51;;;;;;;2.23;2.13;;;27.40;75.60;;;;;;10476299;28;20268;-78
2022/06/26 17:05:54;;;;;;;2.60;2.50;;;27.30;74.80;;;;;;10491808;28;20280;-78
2022/06/26 17:11:08;;;;;;;2.43;2.33;;;27.30;75.00;;;;;;10486761;28;20247;-79
2022/06/26 17:16:11;;;;;;;2.57;2.40;;;27.40;75.80;;;;;;10506220;28;20319;-79
2022/06/26 17:21:13;;;;;;;2.80;2.60;;;27.50;75.70;;;;;;10485444;28;20201;-78
2022/06/26 17:26:16;;;;;;;2.33;2.23;;;27.50;75.60;;;;;;10511189;28;20309;-80
2022/06/26 17:31:19;;;;;;;2.33;2.23;;;27.60;76.40;;;;;;10486491;28;20220;-79
2022/06/26 17:36:21;;;;;;;2.07;1.97;;;27.70;74.90;;;;;;10482366;28;20256;-79
2022/06/26 17:41:27;;;;;;;2.20;2.10;;;27.80;75.10;;;;;;10476189;28;20220;-79
2022/06/26 17:46:31;;;;;;;2.30;2.20;;;28.00;75.60;;;;;;10511621;28;20687;-79
2022/06/26 17:51:34;;;;;;;2.53;2.33;;;28.00;75.20;;;;;;10488693;28;20239;-79
2022/06/26 17:56:37;;;;;;;2.40;2.30;;;27.90;74.60;;;;;;10490672;28;20197;-79
2022/06/26 18:01:39;;;;;;;2.17;2.07;;;27.90;75.80;;;;;;10501618;28;20189;-79
2022/06/26 18:06:41;;;;;;;2.47;2.27;;;28.00;74.40;;;;;;10504223;28;20201;-79
2022/06/26 18:11:46;;;;;;;2.40;2.30;;;28.00;76.00;;;;;;10519984;28;20220;-79
2022/06/26 18:16:48;;;;;;;2.50;2.40;;;27.80;76.30;;;;;;10488796;28;20200;-82
2022/06/26 18:21:50;;;;;;;3.20;3.00;;;27.60;76.50;;;;;;10470344;28;20224;-80
2022/06/26 18:26:55;;;;;;;2.30;2.20;;;27.40;77.20;;;;;;10500823;28;20226;-79
2022/06/26 18:31:57;;;;;;;2.20;2.10;;;27.30;77.80;;;;;;10512755;22;20227;-80
2022/06/26 18:36:59;;;;;;;2.27;2.17;;;27.10;77.30;;;;;;10507928;28;20756;-78
2022/06/26 18:42:03;;;;;;;2.60;2.40;;;27.00;77.90;;;;;;10508438;28;20254;-78
2022/06/26 18:47:07;;;;;;;3.10;2.50;;;26.80;78.90;;;;;;10486375;28;20189;-77
2022/06/26 18:52:09;;;;;;;2.60;2.50;;;26.70;79.20;;;;;;10487982;28;20213;-78
2022/06/26 18:57:13;;;;;;;2.97;2.50;;;26.60;80.20;;;;;;10489938;28;20201;-78
2022/06/26 19:02:15;;;;;;;2.87;2.70;;;26.40;81.80;;;;;;10488160;28;20687;-78
2022/06/26 19:07:18;;;;;;;3.03;2.83;;;26.30;82.30;;;;;;10507817;28;21006;-78
2022/06/26 19:17:42;;;;;;;3.00;2.60;;;26.20;82.30;;;;;;10492945;28;20240;-78
2022/06/26 19:22:45;;;;;;;3.27;3.10;;;26.10;82.30;;;;;;10503944;28;20295;-80
2022/06/26 19:27:49;;;;;;;2.77;2.57;;;26.00;82.80;;;;;;10467759;28;20250;-79
2022/06/26 19:32:51;;;;;;;2.53;2.43;;;25.90;83.70;;;;;;10475990;28;20220;-79
2022/06/26 19:37:54;;;;;;;2.73;2.63;;;25.80;85.20;;;;;;10494908;28;20223;-78
2022/06/26 19:42:57;;;;;;;2.50;2.40;;;25.80;85.70;;;;;;10494852;28;20291;-79
2022/06/26 19:48:00;;;;;;;2.70;2.50;;;25.70;85.10;;;;;;10479219;28;20288;-79
2022/06/26 19:53:03;;;;;;;2.83;2.73;;;25.60;86.60;;;;;;10485254;28;20224;-79
2022/06/26 19:58:07;;;;;;;4.50;2.73;;;25.60;86.40;;;;;;10488061;28;20247;-79
2022/06/26 20:08:29;;;;;;;2.80;2.70;;;25.40;86.40;;;;;;10487828;28;20189;-79
2022/06/26 20:13:33;;;;;;;2.87;2.67;;;25.30;86.40;;;;;;10489149;28;20225;-79
2022/06/26 20:18:36;;;;;;;3.30;3.10;;;25.20;87.40;;;;;;10489077;28;20283;-79
2022/06/26 20:23:39;;;;;;;2.80;2.70;;;25.10;88.20;;;;;;10457256;28;20213;-79
2022/06/26 20:28:42;;;;;;;2.90;2.70;;;25.00;88.10;;;;;;10458469;28;20203;-79
2022/06/26 20:33:47;;;;;;;2.90;2.70;;;25.00;88.50;;;;;;10476727;28;20690;-79
2022/06/26 20:38:49;;;;;;;3.07;2.87;;;24.80;88.30;;;;;;10465913;28;20661;-79
2022/06/26 20:43:53;;;;;;;3.60;2.90;;;24.70;89.10;;;;;;10473291;28;20220;-79
2022/06/26 20:48:55;;;;;;;3.07;2.87;;;24.60;89.60;;;;;;10490922;28;20235;-79
2022/06/26 20:53:58;;;;;;;2.77;2.67;;;24.50;90.30;;;;;;10499576;28;20225;-79
2022/06/26 20:59:02;;;;;;;3.10;2.83;;;24.40;90.20;;;;;;10482124;28;20224;-80
2022/06/26 21:04:04;;;;;;;2.97;2.80;;;24.30;90.40;;;;;;10479623;28;20223;-80
2022/06/26 21:09:07;;;;;;;3.53;3.30;;;24.30;90.50;;;;;;10457916;28;20205;-79
2022/06/26 21:14:10;;;;;;;3.03;2.77;;;24.20;90.40;;;;;;10475582;28;20213;-80
2022/06/26 21:19:13;;;;;;;3.60;3.30;;;24.10;90.80;;;;;;10462587;28;20223;-79
2022/06/26 21:24:16;;;;;;;3.73;3.53;;;24.10;90.90;;;;;;10469510;28;20216;-79
2022/06/26 21:29:19;;;;;;;3.10;3.00;;;24.00;90.80;;;;;;10471534;28;20284;-79
2022/06/26 21:34:22;;;;;;;4.13;3.20;;;24.00;91.30;;;;;;10472606;28;20671;-79
2022/06/26 21:39:24;;;;;;;3.10;3.00;;;23.90;91.20;;;;;;10484094;28;20207;-80
2022/06/26 21:44:27;;;;;;;3.83;3.60;;;23.90;91.50;;;;;;10479123;28;20208;-80
2022/06/26 21:49:29;;;;;;;4.20;3.93;;;23.90;91.50;;;;;;10476195;28;20217;-80
2022/06/26 21:54:32;;;;;;;4.13;3.83;;;23.90;91.80;;;;;;10464636;28;20244;-80
2022/06/26 21:59:35;;;;;;;3.93;3.63;;;23.90;92.40;;;;;;10419317;28;20201;-80
2022/06/26 22:04:37;;;;;;;3.53;3.23;;;24.00;91.40;;;;;;10433647;28;20302;-79
2022/06/26 22:09:40;;;;;;;3.47;3.27;;;24.10;91.00;;;;;;10438632;28;20283;-80
2022/06/26 22:14:44;;;;;;;2.90;2.77;;;24.20;91.00;;;;;;10440345;28;20221;-79
2022/06/26 22:19:46;;;;;;;5.37;3.33;;;24.20;91.10;;;;;;10466889;28;20269;-80
2022/06/26 22:24:48;;;;;;;3.20;3.10;;;24.30;90.50;;;;;;10458325;28;20307;-81
2022/06/26 22:29:52;;;;;;;3.00;2.80;;;24.30;90.90;;;;;;10482391;28;20201;-79
2022/06/26 22:34:54;;;;;;;3.60;3.30;;;24.30;90.10;;;;;;10468160;28;20224;-80
2022/06/26 22:39:56;;;;;;;3.60;3.40;;;24.30;90.20;;;;;;10454421;28;20197;-80
2022/06/26 22:45:00;;;;;;;3.63;3.43;;;24.30;90.40;;;;;;10482901;28;20223;-80
2022/06/26 22:50:02;;;;;;;3.53;3.30;;;24.20;90.70;;;;;;10492418;28;20197;-81
2022/06/26 22:55:05;;;;;;;3.90;3.60;;;24.20;91.10;;;;;;10476279;28;20232;-80
2022/06/26 23:00:12;;;;;;;3.80;3.57;;;24.10;91.40;;;;;;10472013;28;20236;-78
2022/06/26 23:05:16;;;;;;;4.73;4.33;;;24.00;91.90;;;;;;10450652;28;20253;-78
2022/06/26 23:10:18;;;;;;;3.70;3.40;;;23.90;92.00;;;;;;10468668;28;20206;-78
2022/06/26 23:15:22;;;;;;;4.03;3.73;;;23.80;92.40;;;;;;10452276;28;20232;-79
2022/06/26 23:20:24;;;;;;;4.27;3.93;;;23.70;93.00;;;;;;10470710;28;20200;-78
2022/06/26 23:25:27;;;;;;;5.03;4.63;;;23.60;93.40;;;;;;10484950;28;20699;-79
2022/06/26 23:30:30;;;;;;;5.00;4.60;;;23.50;94.20;;;;;;10462508;28;20692;-79
2022/06/26 23:35:32;;;;;;;4.30;4.10;;;23.30;94.90;;;;;;10485096;28;20216;-79
2022/06/26 23:40:37;;;;;;;4.50;3.53;;;23.20;95.20;;;;;;10473544;28;20278;-79
2022/06/26 23:45:41;;;;;;;3.40;3.20;;;23.10;94.70;;;;;;10455295;28;20233;-79
2022/06/26 23:50:43;;;;;;;3.40;3.20;;;22.90;94.60;;;;;;10454474;28;20226;-79
2022/06/26 23:55:45;;;;;;;3.07;2.97;;;22.80;94.90;;;;;;10475915;28;20666;-78
